sensor_id;sensor_type;location;lat;lon;timestamp;P1;durP1;ratioP1;P2;durP2;ratioP2
4616;SDS011;2321;42.704;23.384;2023-07-24T00:01:30;230.40;;;47.47;;
4616;SDS011;2321;42.704;23.384;2023-07-24T00:03:57;230.33;;;47.67;;
4616;SDS011;2321;42.704;23.384;2023-07-24T00:06:26;211.47;;;45.10;;
4616;SDS011;2321;42.704;23.384;2023-07-24T00:08:52;215.70;;;46.57;;
4616;SDS011;2321;42.704;23.384;2023-07-24T00:11:19;221.67;;;47.67;;
4616;SDS011;2321;42.704;23.384;2023-07-24T00:13:46;209.20;;;46.27;;
4616;SDS011;2321;42.704;23.384;2023-07-24T00:16:13;212.30;;;46.10;;
4616;SDS011;2321;42.704;23.384;2023-07-24T00:18:40;219.83;;;47.03;;
4616;SDS011;2321;42.704;23.384;2023-07-24T00:21:07;220.63;;;47.80;;
4616;SDS011;2321;42.704;23.384;2023-07-24T00:23:37;225.70;;;47.37;;
4616;SDS011;2321;42.704;23.384;2023-07-24T00:26:04;219.07;;;47.23;;
4616;SDS011;2321;42.704;23.384;2023-07-24T00:28:31;215.23;;;46.60;;
4616;SDS011;2321;42.704;23.384;2023-07-24T00:30:58;217.70;;;45.83;;
4616;SDS011;2321;42.704;23.384;2023-07-24T00:33:25;226.07;;;47.03;;
4616;SDS011;2321;42.704;23.384;2023-07-24T00:35:54;219.70;;;46.57;;
4616;SDS011;2321;42.704;23.384;2023-07-24T00:38:22;226.33;;;47.30;;
4616;SDS011;2321;42.704;23.384;2023-07-24T00:40:50;227.50;;;47.57;;
4616;SDS011;2321;42.704;23.384;2023-07-24T00:43:17;215.67;;;46.17;;
4616;SDS011;2321;42.704;23.384;2023-07-24T00:45:44;217.93;;;46.43;;
4616;SDS011;2321;42.704;23.384;2023-07-24T00:48:13;219.47;;;46.43;;
4616;SDS011;2321;42.704;23.384;2023-07-24T00:50:40;209.97;;;44.03;;
4616;SDS011;2321;42.704;23.384;2023-07-24T00:53:09;19.23;;;8.20;;
4616;SDS011;2321;42.704;23.384;2023-07-24T00:55:37;18.80;;;8.80;;
4616;SDS011;2321;42.704;23.384;2023-07-24T00:58:06;11.33;;;5.63;;
4616;SDS011;2321;42.704;23.384;2023-07-24T01:00:33;17.60;;;9.13;;
4616;SDS011;2321;42.704;23.384;2023-07-24T01:03:00;22.03;;;7.93;;
4616;SDS011;2321;42.704;23.384;2023-07-24T01:05:27;18.43;;;7.33;;
4616;SDS011;2321;42.704;23.384;2023-07-24T01:07:55;37.07;;;10.33;;
4616;SDS011;2321;42.704;23.384;2023-07-24T01:10:22;42.20;;;12.43;;
4616;SDS011;2321;42.704;23.384;2023-07-24T01:12:51;26.57;;;9.90;;
4616;SDS011;2321;42.704;23.384;2023-07-24T01:15:27;81.70;;;19.73;;
4616;SDS011;2321;42.704;23.384;2023-07-24T01:17:59;23.13;;;8.30;;
4616;SDS011;2321;42.704;23.384;2023-07-24T01:20:28;210.30;;;42.13;;
4616;SDS011;2321;42.704;23.384;2023-07-24T01:23:13;156.53;;;35.53;;
4616;SDS011;2321;42.704;23.384;2023-07-24T01:25:53;146.27;;;32.63;;
4616;SDS011;2321;42.704;23.384;2023-07-24T01:28:22;88.73;;;20.33;;
4616;SDS011;2321;42.704;23.384;2023-07-24T01:30:49;191.97;;;48.03;;
4616;SDS011;2321;42.704;23.384;2023-07-24T01:33:16;177.33;;;38.10;;
4616;SDS011;2321;42.704;23.384;2023-07-24T01:35:43;258.67;;;54.00;;
4616;SDS011;2321;42.704;23.384;2023-07-24T01:38:11;239.63;;;52.27;;
4616;SDS011;2321;42.704;23.384;2023-07-24T01:40:39;210.43;;;46.27;;
4616;SDS011;2321;42.704;23.384;2023-07-24T01:43:08;118.10;;;27.03;;
4616;SDS011;2321;42.704;23.384;2023-07-24T01:45:35;29.50;;;9.60;;
4616;SDS011;2321;42.704;23.384;2023-07-24T01:48:03;25.07;;;8.60;;
4616;SDS011;2321;42.704;23.384;2023-07-24T01:50:30;26.60;;;9.53;;
4616;SDS011;2321;42.704;23.384;2023-07-24T01:52:57;25.67;;;8.33;;
4616;SDS011;2321;42.704;23.384;2023-07-24T01:55:24;103.57;;;22.70;;
4616;SDS011;2321;42.704;23.384;2023-07-24T01:57:51;238.67;;;50.70;;
4616;SDS011;2321;42.704;23.384;2023-07-24T02:00:19;172.70;;;38.40;;
4616;SDS011;2321;42.704;23.384;2023-07-24T02:02:46;213.80;;;46.60;;
4616;SDS011;2321;42.704;23.384;2023-07-24T02:05:13;108.40;;;23.17;;
4616;SDS011;2321;42.704;23.384;2023-07-24T02:07:40;167.63;;;44.23;;
4616;SDS011;2321;42.704;23.384;2023-07-24T02:10:07;184.83;;;43.00;;
4616;SDS011;2321;42.704;23.384;2023-07-24T02:12:35;244.90;;;57.80;;
4616;SDS011;2321;42.704;23.384;2023-07-24T02:15:02;220.43;;;54.83;;
4616;SDS011;2321;42.704;23.384;2023-07-24T02:17:30;239.97;;;54.73;;
4616;SDS011;2321;42.704;23.384;2023-07-24T02:19:57;236.73;;;54.27;;
4616;SDS011;2321;42.704;23.384;2023-07-24T02:22:24;185.13;;;41.57;;
4616;SDS011;2321;42.704;23.384;2023-07-24T02:24:51;220.73;;;50.70;;
4616;SDS011;2321;42.704;23.384;2023-07-24T02:27:24;260.13;;;55.77;;
4616;SDS011;2321;42.704;23.384;2023-07-24T02:29:52;208.50;;;45.73;;
4616;SDS011;2321;42.704;23.384;2023-07-24T02:32:19;161.73;;;37.87;;
4616;SDS011;2321;42.704;23.384;2023-07-24T02:34:49;234.63;;;50.23;;
4616;SDS011;2321;42.704;23.384;2023-07-24T02:37:16;234.77;;;52.23;;
4616;SDS011;2321;42.704;23.384;2023-07-24T02:39:42;234.70;;;52.97;;
4616;SDS011;2321;42.704;23.384;2023-07-24T02:42:09;231.83;;;52.17;;
4616;SDS011;2321;42.704;23.384;2023-07-24T02:44:36;219.33;;;49.60;;
4616;SDS011;2321;42.704;23.384;2023-07-24T02:47:03;207.33;;;46.50;;
4616;SDS011;2321;42.704;23.384;2023-07-24T02:49:31;214.53;;;48.03;;
4616;SDS011;2321;42.704;23.384;2023-07-24T02:52:01;199.03;;;48.33;;
4616;SDS011;2321;42.704;23.384;2023-07-24T02:54:27;207.27;;;48.67;;
4616;SDS011;2321;42.704;23.384;2023-07-24T02:56:54;220.40;;;52.97;;
4616;SDS011;2321;42.704;23.384;2023-07-24T02:59:21;228.67;;;54.33;;
4616;SDS011;2321;42.704;23.384;2023-07-24T03:01:48;225.83;;;50.40;;
4616;SDS011;2321;42.704;23.384;2023-07-24T03:04:15;283.83;;;63.80;;
4616;SDS011;2321;42.704;23.384;2023-07-24T03:06:42;41.27;;;10.80;;
4616;SDS011;2321;42.704;23.384;2023-07-24T03:09:10;172.83;;;38.77;;
4616;SDS011;2321;42.704;23.384;2023-07-24T03:11:37;240.27;;;53.63;;
4616;SDS011;2321;42.704;23.384;2023-07-24T03:14:04;265.43;;;55.80;;
4616;SDS011;2321;42.704;23.384;2023-07-24T03:16:30;223.67;;;47.23;;
4616;SDS011;2321;42.704;23.384;2023-07-24T03:18:57;200.57;;;40.90;;
4616;SDS011;2321;42.704;23.384;2023-07-24T03:21:24;230.00;;;54.37;;
4616;SDS011;2321;42.704;23.384;2023-07-24T03:23:51;238.53;;;54.93;;
4616;SDS011;2321;42.704;23.384;2023-07-24T03:26:19;230.50;;;54.27;;
4616;SDS011;2321;42.704;23.384;2023-07-24T03:28:46;301.03;;;66.63;;
4616;SDS011;2321;42.704;23.384;2023-07-24T03:31:13;221.73;;;49.47;;
4616;SDS011;2321;42.704;23.384;2023-07-24T03:33:40;202.23;;;43.80;;
4616;SDS011;2321;42.704;23.384;2023-07-24T03:36:07;241.73;;;52.70;;
4616;SDS011;2321;42.704;23.384;2023-07-24T03:38:33;235.53;;;52.33;;
4616;SDS011;2321;42.704;23.384;2023-07-24T03:41:00;216.50;;;46.83;;
4616;SDS011;2321;42.704;23.384;2023-07-24T03:43:29;225.63;;;49.87;;
4616;SDS011;2321;42.704;23.384;2023-07-24T03:45:56;261.33;;;57.00;;
4616;SDS011;2321;42.704;23.384;2023-07-24T03:48:22;236.47;;;53.00;;
4616;SDS011;2321;42.704;23.384;2023-07-24T03:50:49;244.07;;;56.30;;
4616;SDS011;2321;42.704;23.384;2023-07-24T03:53:17;222.37;;;51.37;;
4616;SDS011;2321;42.704;23.384;2023-07-24T03:55:43;223.50;;;49.43;;
4616;SDS011;2321;42.704;23.384;2023-07-24T03:58:10;252.90;;;55.67;;
4616;SDS011;2321;42.704;23.384;2023-07-24T04:00:39;306.33;;;67.90;;
4616;SDS011;2321;42.704;23.384;2023-07-24T04:03:05;240.83;;;51.63;;
4616;SDS011;2321;42.704;23.384;2023-07-24T04:05:33;220.93;;;49.83;;
4616;SDS011;2321;42.704;23.384;2023-07-24T04:08:01;216.37;;;47.93;;
4616;SDS011;2321;42.704;23.384;2023-07-24T04:10:28;255.20;;;58.40;;
4616;SDS011;2321;42.704;23.384;2023-07-24T04:12:56;267.03;;;59.67;;
4616;SDS011;2321;42.704;23.384;2023-07-24T04:15:23;227.87;;;52.70;;
4616;SDS011;2321;42.704;23.384;2023-07-24T04:17:51;242.27;;;56.67;;
4616;SDS011;2321;42.704;23.384;2023-07-24T04:20:18;244.10;;;57.80;;
4616;SDS011;2321;42.704;23.384;2023-07-24T04:22:45;219.97;;;49.43;;
4616;SDS011;2321;42.704;23.384;2023-07-24T04:25:11;248.77;;;51.63;;
4616;SDS011;2321;42.704;23.384;2023-07-24T04:27:38;252.87;;;54.30;;
4616;SDS011;2321;42.704;23.384;2023-07-24T04:30:06;225.53;;;49.87;;
4616;SDS011;2321;42.704;23.384;2023-07-24T04:32:33;214.27;;;47.43;;
4616;SDS011;2321;42.704;23.384;2023-07-24T04:35:02;169.70;;;41.57;;
4616;SDS011;2321;42.704;23.384;2023-07-24T04:37:29;156.10;;;39.87;;
4616;SDS011;2321;42.704;23.384;2023-07-24T04:39:56;221.47;;;52.43;;
4616;SDS011;2321;42.704;23.384;2023-07-24T04:42:23;214.50;;;53.00;;
4616;SDS011;2321;42.704;23.384;2023-07-24T04:44:50;191.87;;;46.53;;
4616;SDS011;2321;42.704;23.384;2023-07-24T04:47:17;190.67;;;47.17;;
4616;SDS011;2321;42.704;23.384;2023-07-24T04:49:43;196.87;;;50.33;;
4616;SDS011;2321;42.704;23.384;2023-07-24T04:52:12;240.77;;;63.67;;
4616;SDS011;2321;42.704;23.384;2023-07-24T04:54:38;240.93;;;60.23;;
4616;SDS011;2321;42.704;23.384;2023-07-24T04:57:05;184.53;;;45.80;;
4616;SDS011;2321;42.704;23.384;2023-07-24T04:59:32;219.97;;;60.20;;
4616;SDS011;2321;42.704;23.384;2023-07-24T05:01:59;190.17;;;50.47;;
4616;SDS011;2321;42.704;23.384;2023-07-24T05:04:26;194.20;;;56.93;;
4616;SDS011;2321;42.704;23.384;2023-07-24T05:06:53;168.13;;;51.40;;
4616;SDS011;2321;42.704;23.384;2023-07-24T05:09:21;154.97;;;49.57;;
4616;SDS011;2321;42.704;23.384;2023-07-24T05:11:48;166.70;;;51.13;;
4616;SDS011;2321;42.704;23.384;2023-07-24T05:14:15;160.40;;;51.63;;
4616;SDS011;2321;42.704;23.384;2023-07-24T05:16:42;150.60;;;51.20;;
4616;SDS011;2321;42.704;23.384;2023-07-24T05:19:08;176.87;;;55.77;;
4616;SDS011;2321;42.704;23.384;2023-07-24T05:21:35;148.13;;;50.13;;
4616;SDS011;2321;42.704;23.384;2023-07-24T05:24:02;151.93;;;51.47;;
4616;SDS011;2321;42.704;23.384;2023-07-24T05:26:31;167.57;;;54.67;;
4616;SDS011;2321;42.704;23.384;2023-07-24T05:28:58;154.10;;;54.00;;
4616;SDS011;2321;42.704;23.384;2023-07-24T05:31:24;153.43;;;54.87;;
4616;SDS011;2321;42.704;23.384;2023-07-24T05:33:51;120.60;;;47.33;;
4616;SDS011;2321;42.704;23.384;2023-07-24T05:36:18;130.33;;;47.23;;
4616;SDS011;2321;42.704;23.384;2023-07-24T05:38:45;165.20;;;54.43;;
4616;SDS011;2321;42.704;23.384;2023-07-24T05:41:12;142.13;;;50.60;;
4616;SDS011;2321;42.704;23.384;2023-07-24T05:43:40;137.97;;;49.83;;
4616;SDS011;2321;42.704;23.384;2023-07-24T05:46:07;125.37;;;48.73;;
4616;SDS011;2321;42.704;23.384;2023-07-24T05:48:34;133.57;;;49.83;;
4616;SDS011;2321;42.704;23.384;2023-07-24T05:51:00;130.40;;;49.40;;
4616;SDS011;2321;42.704;23.384;2023-07-24T05:53:27;112.60;;;45.13;;
4616;SDS011;2321;42.704;23.384;2023-07-24T05:55:57;123.93;;;47.60;;
4616;SDS011;2321;42.704;23.384;2023-07-24T05:58:25;118.37;;;45.60;;
4616;SDS011;2321;42.704;23.384;2023-07-24T06:00:54;129.60;;;47.83;;
4616;SDS011;2321;42.704;23.384;2023-07-24T06:03:21;126.27;;;45.60;;
4616;SDS011;2321;42.704;23.384;2023-07-24T06:05:50;126.73;;;45.13;;
4616;SDS011;2321;42.704;23.384;2023-07-24T06:08:17;120.07;;;45.10;;
4616;SDS011;2321;42.704;23.384;2023-07-24T06:10:45;136.73;;;49.33;;
4616;SDS011;2321;42.704;23.384;2023-07-24T06:13:13;140.10;;;49.43;;
4616;SDS011;2321;42.704;23.384;2023-07-24T06:15:40;140.97;;;50.93;;
4616;SDS011;2321;42.704;23.384;2023-07-24T06:18:08;115.10;;;45.00;;
4616;SDS011;2321;42.704;23.384;2023-07-24T06:20:35;117.83;;;45.60;;
4616;SDS011;2321;42.704;23.384;2023-07-24T06:23:02;101.67;;;43.43;;
4616;SDS011;2321;42.704;23.384;2023-07-24T06:25:29;112.33;;;46.37;;
4616;SDS011;2321;42.704;23.384;2023-07-24T06:27:56;89.83;;;41.90;;
4616;SDS011;2321;42.704;23.384;2023-07-24T06:30:26;115.60;;;47.67;;
4616;SDS011;2321;42.704;23.384;2023-07-24T06:32:53;91.37;;;40.27;;
4616;SDS011;2321;42.704;23.384;2023-07-24T06:35:21;99.60;;;43.50;;
4616;SDS011;2321;42.704;23.384;2023-07-24T06:37:48;97.87;;;42.93;;
4616;SDS011;2321;42.704;23.384;2023-07-24T06:40:15;133.30;;;48.83;;
4616;SDS011;2321;42.704;23.384;2023-07-24T06:42:42;133.53;;;48.17;;
4616;SDS011;2321;42.704;23.384;2023-07-24T06:45:09;145.87;;;52.07;;
4616;SDS011;2321;42.704;23.384;2023-07-24T06:47:36;126.97;;;48.30;;
4616;SDS011;2321;42.704;23.384;2023-07-24T06:50:03;157.20;;;54.73;;
4616;SDS011;2321;42.704;23.384;2023-07-24T06:52:32;120.77;;;46.00;;
4616;SDS011;2321;42.704;23.384;2023-07-24T06:54:59;102.40;;;44.47;;
4616;SDS011;2321;42.704;23.384;2023-07-24T06:57:26;101.83;;;43.60;;
4616;SDS011;2321;42.704;23.384;2023-07-24T06:59:53;136.93;;;49.73;;
4616;SDS011;2321;42.704;23.384;2023-07-24T07:02:21;145.00;;;53.50;;
4616;SDS011;2321;42.704;23.384;2023-07-24T07:04:48;93.73;;;42.37;;
4616;SDS011;2321;42.704;23.384;2023-07-24T07:07:15;105.50;;;45.03;;
4616;SDS011;2321;42.704;23.384;2023-07-24T07:09:43;109.80;;;46.87;;
4616;SDS011;2321;42.704;23.384;2023-07-24T07:12:10;127.43;;;50.77;;
4616;SDS011;2321;42.704;23.384;2023-07-24T07:14:36;110.57;;;47.23;;
4616;SDS011;2321;42.704;23.384;2023-07-24T07:17:03;90.03;;;42.97;;
4616;SDS011;2321;42.704;23.384;2023-07-24T07:19:30;92.03;;;42.60;;
4616;SDS011;2321;42.704;23.384;2023-07-24T07:21:57;74.63;;;37.77;;
4616;SDS011;2321;42.704;23.384;2023-07-24T07:24:24;114.23;;;47.80;;
4616;SDS011;2321;42.704;23.384;2023-07-24T07:26:52;111.83;;;46.53;;
4616;SDS011;2321;42.704;23.384;2023-07-24T07:29:20;79.77;;;40.97;;
4616;SDS011;2321;42.704;23.384;2023-07-24T07:31:46;131.77;;;49.17;;
4616;SDS011;2321;42.704;23.384;2023-07-24T07:34:13;122.47;;;48.03;;
4616;SDS011;2321;42.704;23.384;2023-07-24T07:36:40;149.43;;;52.37;;
4616;SDS011;2321;42.704;23.384;2023-07-24T07:39:07;142.03;;;51.70;;
4616;SDS011;2321;42.704;23.384;2023-07-24T07:41:34;97.63;;;42.57;;
4616;SDS011;2321;42.704;23.384;2023-07-24T07:44:03;115.33;;;45.97;;
4616;SDS011;2321;42.704;23.384;2023-07-24T07:46:32;116.87;;;46.37;;
4616;SDS011;2321;42.704;23.384;2023-07-24T07:48:59;100.17;;;45.20;;
4616;SDS011;2321;42.704;23.384;2023-07-24T07:51:28;115.00;;;47.97;;
4616;SDS011;2321;42.704;23.384;2023-07-24T07:53:55;118.80;;;47.13;;
4616;SDS011;2321;42.704;23.384;2023-07-24T07:56:22;122.97;;;46.77;;
4616;SDS011;2321;42.704;23.384;2023-07-24T07:58:49;128.80;;;50.00;;
4616;SDS011;2321;42.704;23.384;2023-07-24T08:01:17;191.33;;;51.43;;
4616;SDS011;2321;42.704;23.384;2023-07-24T08:03:44;173.50;;;54.43;;
4616;SDS011;2321;42.704;23.384;2023-07-24T08:06:11;168.30;;;52.67;;
4616;SDS011;2321;42.704;23.384;2023-07-24T08:08:38;143.57;;;50.47;;
4616;SDS011;2321;42.704;23.384;2023-07-24T08:11:08;170.67;;;55.43;;
4616;SDS011;2321;42.704;23.384;2023-07-24T08:13:35;160.33;;;52.20;;
4616;SDS011;2321;42.704;23.384;2023-07-24T08:16:02;236.00;;;60.97;;
4616;SDS011;2321;42.704;23.384;2023-07-24T08:18:30;206.37;;;52.03;;
4616;SDS011;2321;42.704;23.384;2023-07-24T08:21:00;206.60;;;53.63;;
4616;SDS011;2321;42.704;23.384;2023-07-24T08:23:27;214.27;;;53.20;;
4616;SDS011;2321;42.704;23.384;2023-07-24T08:25:54;181.70;;;46.90;;
4616;SDS011;2321;42.704;23.384;2023-07-24T08:28:21;196.63;;;56.13;;
4616;SDS011;2321;42.704;23.384;2023-07-24T08:30:55;177.17;;;52.23;;
4616;SDS011;2321;42.704;23.384;2023-07-24T08:33:27;188.80;;;56.10;;
4616;SDS011;2321;42.704;23.384;2023-07-24T08:36:02;152.20;;;43.03;;
4616;SDS011;2321;42.704;23.384;2023-07-24T08:38:30;160.27;;;49.70;;
4616;SDS011;2321;42.704;23.384;2023-07-24T08:41:01;172.77;;;48.10;;
4616;SDS011;2321;42.704;23.384;2023-07-24T08:43:29;200.27;;;54.00;;
4616;SDS011;2321;42.704;23.384;2023-07-24T08:45:57;189.90;;;54.67;;
4616;SDS011;2321;42.704;23.384;2023-07-24T08:48:25;194.73;;;55.80;;
4616;SDS011;2321;42.704;23.384;2023-07-24T08:50:55;201.47;;;56.77;;
4616;SDS011;2321;42.704;23.384;2023-07-24T08:53:26;179.17;;;47.67;;
4616;SDS011;2321;42.704;23.384;2023-07-24T08:55:54;198.47;;;55.83;;
4616;SDS011;2321;42.704;23.384;2023-07-24T08:58:22;176.90;;;53.03;;
4616;SDS011;2321;42.704;23.384;2023-07-24T09:00:49;158.47;;;45.70;;
4616;SDS011;2321;42.704;23.384;2023-07-24T09:03:17;189.67;;;49.23;;
4616;SDS011;2321;42.704;23.384;2023-07-24T09:05:46;192.43;;;51.70;;
4616;SDS011;2321;42.704;23.384;2023-07-24T09:08:13;196.50;;;52.97;;
4616;SDS011;2321;42.704;23.384;2023-07-24T09:10:42;193.20;;;52.07;;
4616;SDS011;2321;42.704;23.384;2023-07-24T09:13:11;193.50;;;54.50;;
4616;SDS011;2321;42.704;23.384;2023-07-24T09:15:42;180.20;;;49.33;;
4616;SDS011;2321;42.704;23.384;2023-07-24T09:18:09;211.70;;;59.20;;
4616;SDS011;2321;42.704;23.384;2023-07-24T09:20:38;17.83;;;6.70;;
4616;SDS011;2321;42.704;23.384;2023-07-24T09:23:06;48.70;;;12.53;;
4616;SDS011;2321;42.704;23.384;2023-07-24T09:25:34;89.43;;;20.13;;
4616;SDS011;2321;42.704;23.384;2023-07-24T09:28:09;121.80;;;29.40;;
4616;SDS011;2321;42.704;23.384;2023-07-24T09:30:37;155.60;;;36.60;;
4616;SDS011;2321;42.704;23.384;2023-07-24T09:33:05;243.87;;;55.37;;
4616;SDS011;2321;42.704;23.384;2023-07-24T09:35:32;232.00;;;54.77;;
4616;SDS011;2321;42.704;23.384;2023-07-24T09:38:02;205.40;;;49.63;;
4616;SDS011;2321;42.704;23.384;2023-07-24T09:40:37;40.77;;;36.43;;
4616;SDS011;2321;42.704;23.384;2023-07-24T09:43:16;13.20;;;6.20;;
4616;SDS011;2321;42.704;23.384;2023-07-24T09:45:44;5.37;;;4.47;;
4616;SDS011;2321;42.704;23.384;2023-07-24T09:48:12;36.27;;;11.20;;
4616;SDS011;2321;42.704;23.384;2023-07-24T09:50:40;27.13;;;8.93;;
4616;SDS011;2321;42.704;23.384;2023-07-24T09:53:09;34.00;;;9.73;;
4616;SDS011;2321;42.704;23.384;2023-07-24T09:55:43;69.50;;;17.73;;
4616;SDS011;2321;42.704;23.384;2023-07-24T09:58:17;59.60;;;15.90;;
4616;SDS011;2321;42.704;23.384;2023-07-24T10:00:45;33.00;;;9.27;;
4616;SDS011;2321;42.704;23.384;2023-07-24T10:03:13;151.40;;;35.80;;
4616;SDS011;2321;42.704;23.384;2023-07-24T10:05:41;212.00;;;50.20;;
4616;SDS011;2321;42.704;23.384;2023-07-24T10:08:09;158.47;;;39.30;;
4616;SDS011;2321;42.704;23.384;2023-07-24T10:10:37;228.57;;;56.87;;
4616;SDS011;2321;42.704;23.384;2023-07-24T10:13:05;228.67;;;61.17;;
4616;SDS011;2321;42.704;23.384;2023-07-24T10:15:37;179.40;;;49.87;;
4616;SDS011;2321;42.704;23.384;2023-07-24T10:18:05;222.07;;;57.60;;
4616;SDS011;2321;42.704;23.384;2023-07-24T10:20:34;85.13;;;20.97;;
4616;SDS011;2321;42.704;23.384;2023-07-24T10:23:01;189.27;;;44.93;;
4616;SDS011;2321;42.704;23.384;2023-07-24T10:25:29;186.20;;;46.57;;
4616;SDS011;2321;42.704;23.384;2023-07-24T10:28:01;204.93;;;53.77;;
4616;SDS011;2321;42.704;23.384;2023-07-24T10:30:31;192.27;;;49.07;;
4616;SDS011;2321;42.704;23.384;2023-07-24T10:33:06;170.83;;;46.67;;
4616;SDS011;2321;42.704;23.384;2023-07-24T10:35:41;189.73;;;50.13;;
4616;SDS011;2321;42.704;23.384;2023-07-24T10:38:09;205.53;;;55.37;;
4616;SDS011;2321;42.704;23.384;2023-07-24T10:40:37;183.00;;;50.87;;
4616;SDS011;2321;42.704;23.384;2023-07-24T10:43:05;167.60;;;47.20;;
4616;SDS011;2321;42.704;23.384;2023-07-24T10:45:40;191.77;;;54.50;;
4616;SDS011;2321;42.704;23.384;2023-07-24T10:48:14;156.30;;;43.37;;
4616;SDS011;2321;42.704;23.384;2023-07-24T10:50:43;144.73;;;42.97;;
4616;SDS011;2321;42.704;23.384;2023-07-24T10:53:10;164.53;;;47.77;;
4616;SDS011;2321;42.704;23.384;2023-07-24T10:55:40;202.23;;;53.43;;
4616;SDS011;2321;42.704;23.384;2023-07-24T10:58:08;189.77;;;51.57;;
4616;SDS011;2321;42.704;23.384;2023-07-24T11:00:35;151.03;;;46.27;;
4616;SDS011;2321;42.704;23.384;2023-07-24T11:03:02;232.30;;;60.40;;
4616;SDS011;2321;42.704;23.384;2023-07-24T11:05:30;222.53;;;54.30;;
4616;SDS011;2321;42.704;23.384;2023-07-24T11:07:57;189.03;;;44.90;;
4616;SDS011;2321;42.704;23.384;2023-07-24T11:10:24;185.27;;;46.10;;
4616;SDS011;2321;42.704;23.384;2023-07-24T11:12:52;190.47;;;49.63;;
4616;SDS011;2321;42.704;23.384;2023-07-24T11:15:23;172.63;;;44.23;;
4616;SDS011;2321;42.704;23.384;2023-07-24T11:17:51;214.17;;;50.83;;
4616;SDS011;2321;42.704;23.384;2023-07-24T11:20:19;220.70;;;53.60;;
4616;SDS011;2321;42.704;23.384;2023-07-24T11:22:47;186.70;;;45.43;;
4616;SDS011;2321;42.704;23.384;2023-07-24T11:25:14;205.87;;;51.50;;
4616;SDS011;2321;42.704;23.384;2023-07-24T11:27:41;206.97;;;48.37;;
4616;SDS011;2321;42.704;23.384;2023-07-24T11:30:10;73.90;;;20.50;;
4616;SDS011;2321;42.704;23.384;2023-07-24T11:32:38;218.77;;;54.77;;
4616;SDS011;2321;42.704;23.384;2023-07-24T11:35:07;108.67;;;27.43;;
4616;SDS011;2321;42.704;23.384;2023-07-24T11:37:34;23.47;;;8.70;;
4616;SDS011;2321;42.704;23.384;2023-07-24T11:40:04;12.53;;;5.67;;
4616;SDS011;2321;42.704;23.384;2023-07-24T11:42:38;17.53;;;6.40;;
4616;SDS011;2321;42.704;23.384;2023-07-24T11:45:06;12.20;;;5.10;;
4616;SDS011;2321;42.704;23.384;2023-07-24T11:47:41;9.43;;;5.20;;
4616;SDS011;2321;42.704;23.384;2023-07-24T11:50:09;17.13;;;5.93;;
4616;SDS011;2321;42.704;23.384;2023-07-24T11:52:39;26.50;;;7.83;;
4616;SDS011;2321;42.704;23.384;2023-07-24T11:55:11;17.27;;;5.90;;
4616;SDS011;2321;42.704;23.384;2023-07-24T11:57:38;13.33;;;5.43;;
4616;SDS011;2321;42.704;23.384;2023-07-24T12:00:06;26.73;;;8.53;;
4616;SDS011;2321;42.704;23.384;2023-07-24T12:02:43;20.53;;;6.60;;
4616;SDS011;2321;42.704;23.384;2023-07-24T12:05:10;18.07;;;7.43;;
4616;SDS011;2321;42.704;23.384;2023-07-24T12:07:37;13.47;;;6.57;;
4616;SDS011;2321;42.704;23.384;2023-07-24T12:10:05;18.00;;;7.17;;
4616;SDS011;2321;42.704;23.384;2023-07-24T12:12:42;14.33;;;5.80;;
4616;SDS011;2321;42.704;23.384;2023-07-24T12:15:10;13.63;;;6.77;;
4616;SDS011;2321;42.704;23.384;2023-07-24T12:17:38;19.90;;;6.83;;
4616;SDS011;2321;42.704;23.384;2023-07-24T12:20:06;16.67;;;6.73;;
4616;SDS011;2321;42.704;23.384;2023-07-24T12:22:34;31.07;;;9.43;;
4616;SDS011;2321;42.704;23.384;2023-07-24T12:25:01;23.23;;;7.73;;
4616;SDS011;2321;42.704;23.384;2023-07-24T12:27:28;32.10;;;9.33;;
4616;SDS011;2321;42.704;23.384;2023-07-24T12:29:57;17.07;;;6.83;;
4616;SDS011;2321;42.704;23.384;2023-07-24T12:32:24;16.33;;;6.03;;
4616;SDS011;2321;42.704;23.384;2023-07-24T12:34:51;9.73;;;4.97;;
4616;SDS011;2321;42.704;23.384;2023-07-24T12:37:19;10.33;;;4.33;;
4616;SDS011;2321;42.704;23.384;2023-07-24T12:39:46;26.77;;;8.47;;
4616;SDS011;2321;42.704;23.384;2023-07-24T12:42:14;21.13;;;7.90;;
4616;SDS011;2321;42.704;23.384;2023-07-24T12:44:41;14.07;;;5.60;;
4616;SDS011;2321;42.704;23.384;2023-07-24T12:47:10;11.90;;;5.20;;
4616;SDS011;2321;42.704;23.384;2023-07-24T12:49:38;23.20;;;8.07;;
4616;SDS011;2321;42.704;23.384;2023-07-24T12:52:05;18.70;;;6.60;;
4616;SDS011;2321;42.704;23.384;2023-07-24T12:54:35;27.27;;;8.90;;
4616;SDS011;2321;42.704;23.384;2023-07-24T12:57:01;31.17;;;9.97;;
4616;SDS011;2321;42.704;23.384;2023-07-24T12:59:29;26.97;;;9.73;;
4616;SDS011;2321;42.704;23.384;2023-07-24T13:01:56;26.30;;;8.30;;
4616;SDS011;2321;42.704;23.384;2023-07-24T13:04:24;17.60;;;6.53;;
4616;SDS011;2321;42.704;23.384;2023-07-24T13:06:51;33.50;;;10.80;;
4616;SDS011;2321;42.704;23.384;2023-07-24T13:09:19;32.53;;;9.30;;
4616;SDS011;2321;42.704;23.384;2023-07-24T13:11:46;42.37;;;12.30;;
4616;SDS011;2321;42.704;23.384;2023-07-24T13:14:16;25.13;;;8.63;;
4616;SDS011;2321;42.704;23.384;2023-07-24T13:16:43;24.50;;;7.80;;
4616;SDS011;2321;42.704;23.384;2023-07-24T13:19:10;46.00;;;13.50;;
4616;SDS011;2321;42.704;23.384;2023-07-24T13:21:38;11.53;;;4.63;;
4616;SDS011;2321;42.704;23.384;2023-07-24T13:24:05;17.47;;;7.90;;
4616;SDS011;2321;42.704;23.384;2023-07-24T13:26:32;37.73;;;9.70;;
4616;SDS011;2321;42.704;23.384;2023-07-24T13:28:59;14.53;;;5.80;;
4616;SDS011;2321;42.704;23.384;2023-07-24T13:31:26;32.63;;;9.83;;
4616;SDS011;2321;42.704;23.384;2023-07-24T13:33:55;10.03;;;4.63;;
4616;SDS011;2321;42.704;23.384;2023-07-24T13:36:22;20.10;;;6.87;;
4616;SDS011;2321;42.704;23.384;2023-07-24T13:38:50;12.57;;;5.37;;
4616;SDS011;2321;42.704;23.384;2023-07-24T13:41:17;12.67;;;5.33;;
4616;SDS011;2321;42.704;23.384;2023-07-24T13:43:44;26.73;;;8.83;;
4616;SDS011;2321;42.704;23.384;2023-07-24T13:46:11;20.80;;;7.53;;
4616;SDS011;2321;42.704;23.384;2023-07-24T13:48:38;11.87;;;4.90;;
4616;SDS011;2321;42.704;23.384;2023-07-24T13:51:05;12.53;;;5.43;;
4616;SDS011;2321;42.704;23.384;2023-07-24T13:53:32;23.60;;;8.03;;
4616;SDS011;2321;42.704;23.384;2023-07-24T13:56:00;24.17;;;7.50;;
4616;SDS011;2321;42.704;23.384;2023-07-24T13:58:27;14.43;;;5.13;;
4616;SDS011;2321;42.704;23.384;2023-07-24T14:00:54;21.70;;;7.60;;
4616;SDS011;2321;42.704;23.384;2023-07-24T14:03:21;33.97;;;10.40;;
4616;SDS011;2321;42.704;23.384;2023-07-24T14:05:51;15.17;;;5.73;;
4616;SDS011;2321;42.704;23.384;2023-07-24T14:08:18;47.73;;;12.13;;
4616;SDS011;2321;42.704;23.384;2023-07-24T14:10:44;23.13;;;7.80;;
4616;SDS011;2321;42.704;23.384;2023-07-24T14:13:13;29.70;;;9.43;;
4616;SDS011;2321;42.704;23.384;2023-07-24T14:15:40;33.93;;;9.77;;
4616;SDS011;2321;42.704;23.384;2023-07-24T14:18:07;30.93;;;11.60;;
4616;SDS011;2321;42.704;23.384;2023-07-24T14:20:34;16.67;;;6.40;;
4616;SDS011;2321;42.704;23.384;2023-07-24T14:23:02;48.93;;;12.90;;
4616;SDS011;2321;42.704;23.384;2023-07-24T14:25:29;39.83;;;11.67;;
4616;SDS011;2321;42.704;23.384;2023-07-24T14:27:56;21.60;;;7.90;;
4616;SDS011;2321;42.704;23.384;2023-07-24T14:30:24;35.33;;;10.63;;
4616;SDS011;2321;42.704;23.384;2023-07-24T14:32:51;333.87;;;102.40;;